Time;durP1;ratioP1;P1;durP2;ratioP2;P2;SDS_P1;SDS_P2;PMS_P1;PMS_P2;Temp;Humidity;BMP_temperature;BMP_pressure;BME280_temperature;BME280_humidity;BME280_pressure;Samples;Min_cycle;Max_cycle;Signal;HPM_P1;HPM_P2
2023/04/06 00:00:15;;;;;;;14.07;12.07;;;-0.20;78.70;;;;;;5027310;28;20305;-68
2023/04/06 00:02:42;;;;;;;15.50;13.90;;;-0.10;79.60;;;;;;5027687;28;20201;-68
2023/04/06 00:05:09;;;;;;;18.55;14.35;;;-0.20;80.20;;;;;;5027753;28;20677;-69
2023/04/06 00:07:36;;;;;;;16.55;13.75;;;-0.30;81.00;;;;;;5028638;28;20269;-68
2023/04/06 00:10:05;;;;;;;17.60;14.40;;;-0.30;82.10;;;;;;5028676;28;20225;-68
2023/04/06 00:12:32;;;;;;;15.45;13.68;;;-0.30;83.40;;;;;;5027660;28;20214;-69
2023/04/06 00:15:01;;;;;;;16.05;13.90;;;-0.40;83.80;;;;;;5027655;28;20230;-69
2023/04/06 00:17:28;;;;;;;17.92;14.10;;;-0.40;85.70;;;;;;5027009;28;20300;-68
2023/04/06 00:19:55;;;;;;;17.77;14.38;;;-0.40;86.80;;;;;;5027959;28;20309;-68
2023/04/06 00:22:22;;;;;;;16.27;14.35;;;-0.30;88.00;;;;;;5026771;28;20255;-71
2023/04/06 00:24:49;;;;;;;15.48;13.52;;;-0.40;86.90;;;;;;5027735;28;20297;-68
2023/04/06 00:27:17;;;;;;;15.23;13.13;;;-0.40;86.80;;;;;;5027738;28;20224;-68
2023/04/06 00:29:45;;;;;;;19.65;13.07;;;-0.40;85.60;;;;;;5026767;28;20232;-69
2023/04/06 00:32:12;;;;;;;14.52;12.40;;;-0.30;85.60;;;;;;5027178;28;20836;-68
2023/04/06 00:34:38;;;;;;;13.55;12.13;;;-0.20;85.60;;;;;;5026686;28;20260;-69
2023/04/06 00:37:05;;;;;;;14.00;12.65;;;-0.20;84.30;;;;;;5015916;28;20313;-67
2023/04/06 00:39:32;;;;;;;13.43;12.02;;;-0.30;83.50;;;;;;5025039;28;20329;-70
2023/04/06 00:42:00;;;;;;;13.77;12.27;;;-0.40;83.30;;;;;;5025854;28;20229;-69
2023/04/06 00:44:28;;;;;;;16.67;12.90;;;-0.50;83.90;;;;;;5025683;28;20206;-70
2023/04/06 00:46:55;;;;;;;12.15;10.95;;;-0.40;84.80;;;;;;5027153;28;20213;-69
2023/04/06 00:49:22;;;;;;;15.27;13.68;;;-0.40;84.40;;;;;;5026980;28;20316;-68
2023/04/06 00:51:48;;;;;;;15.80;12.40;;;-0.40;83.30;;;;;;5027116;28;20202;-68
2023/04/06 00:54:15;;;;;;;15.43;11.15;;;-0.30;82.00;;;;;;5026443;28;20229;-69
2023/04/06 00:56:43;;;;;;;16.20;13.18;;;-0.30;81.50;;;;;;5027202;28;20210;-69
2023/04/06 00:59:10;;;;;;;15.80;13.05;;;-0.30;81.30;;;;;;5026622;28;20213;-69
2023/04/06 01:01:39;;;;;;;14.02;11.85;;;-0.30;82.20;;;;;;5027284;28;20585;-70
2023/04/06 01:04:05;;;;;;;15.45;11.98;;;-0.30;83.30;;;;;;5026669;28;20265;-68
2023/04/06 01:06:32;;;;;;;13.93;12.43;;;-0.30;84.50;;;;;;5027108;28;20592;-69
2023/04/06 01:08:59;;;;;;;14.65;12.20;;;-0.50;83.50;;;;;;5027014;28;20243;-68
2023/04/06 01:11:26;;;;;;;14.02;12.15;;;-0.50;82.80;;;;;;5020811;28;20207;-68
2023/04/06 01:13:54;;;;;;;14.15;11.93;;;-0.60;82.80;;;;;;5025374;28;20202;-67
2023/04/06 01:16:21;;;;;;;20.00;13.20;;;-0.60;82.50;;;;;;5027459;28;20236;-69
2023/04/06 01:18:49;;;;;;;15.25;13.10;;;-0.60;84.30;;;;;;5027937;28;20288;-68
2023/04/06 01:21:17;;;;;;;15.00;12.30;;;-0.60;84.70;;;;;;5027505;28;20210;-68
2023/04/06 01:23:46;;;;;;;14.98;12.00;;;-0.70;85.00;;;;;;5027436;28;20841;-69
2023/04/06 01:26:13;;;;;;;14.88;12.65;;;-0.70;84.80;;;;;;5029146;28;20616;-70
2023/04/06 01:28:44;;;;;;;13.82;12.35;;;-0.70;83.90;;;;;;5028717;28;20220;-68
2023/04/06 01:31:11;;;;;;;15.70;12.00;;;-0.80;83.90;;;;;;5028844;28;20206;-69
2023/04/06 01:33:38;;;;;;;15.98;12.30;;;-0.80;86.00;;;;;;5028670;28;20237;-69
2023/04/06 01:36:06;;;;;;;12.73;10.90;;;-0.80;85.80;;;;;;5029161;28;20289;-68
2023/04/06 01:38:33;;;;;;;16.38;11.10;;;-0.80;84.90;;;;;;5029410;28;20293;-68
2023/04/06 01:41:01;;;;;;;13.55;11.30;;;-0.80;84.20;;;;;;5029036;28;20640;-69
2023/04/06 01:43:28;;;;;;;13.65;11.25;;;-0.80;84.20;;;;;;5029095;28;20202;-69
2023/04/06 01:45:55;;;;;;;14.55;11.13;;;-0.70;84.00;;;;;;5029191;28;20241;-68
2023/04/06 01:48:22;;;;;;;16.50;11.85;;;-0.80;83.70;;;;;;5029242;28;20698;-69
2023/04/06 01:50:48;;;;;;;13.68;12.23;;;-0.90;84.20;;;;;;5029143;28;20747;-69
2023/04/06 01:53:16;;;;;;;13.32;11.38;;;-0.90;85.10;;;;;;5029039;28;20293;-68
2023/04/06 01:55:43;;;;;;;13.77;12.27;;;-1.00;85.10;;;;;;5031909;28;20228;-68
2023/04/06 01:58:11;;;;;;;12.75;11.45;;;-1.10;85.60;;;;;;5032820;28;20297;-67
2023/04/06 02:00:38;;;;;;;12.80;11.50;;;-1.20;86.10;;;;;;5032744;28;20691;-70
2023/04/06 02:03:05;;;;;;;12.63;11.32;;;-1.20;86.40;;;;;;5031760;28;20202;-68
2023/04/06 02:05:37;;;;;;;12.30;10.90;;;-1.20;86.70;;;;;;5032743;28;20817;-68
2023/04/06 02:08:04;;;;;;;13.05;10.80;;;-1.20;86.90;;;;;;5033521;28;20210;-69
2023/04/06 02:10:31;;;;;;;13.30;11.20;;;-1.20;87.50;;;;;;5032891;28;20316;-69
2023/04/06 02:12:58;;;;;;;12.68;11.27;;;-1.00;87.60;;;;;;5032335;28;20216;-70
2023/04/06 02:15:27;;;;;;;13.75;12.35;;;-0.90;87.30;;;;;;5032295;28;20610;-69
2023/04/06 02:17:53;;;;;;;13.48;11.82;;;-1.00;86.10;;;;;;5032365;28;20297;-69
2023/04/06 02:20:21;;;;;;;12.27;10.95;;;-1.00;85.90;;;;;;5032041;28;20261;-69
2023/04/06 02:22:48;;;;;;;15.70;11.05;;;-1.10;85.50;;;;;;5031964;28;20197;-69
2023/04/06 02:25:15;;;;;;;12.73;11.40;;;-1.30;86.10;;;;;;5032160;28;20671;-69
2023/04/06 02:27:42;;;;;;;12.73;11.32;;;-1.30;87.60;;;;;;5032353;28;20640;-68
2023/04/06 02:30:09;;;;;;;14.48;11.85;;;-1.30;88.00;;;;;;5032048;28;20248;-69
2023/04/06 02:32:38;;;;;;;15.30;12.40;;;-1.30;88.00;;;;;;5031568;28;20716;-70
2023/04/06 02:35:05;;;;;;;12.15;10.85;;;-1.30;88.40;;;;;;5032106;28;20221;-70
2023/04/06 02:37:32;;;;;;;12.70;11.38;;;-1.30;88.60;;;;;;5031955;28;20292;-69
2023/04/06 02:39:59;;;;;;;12.70;11.40;;;-1.40;88.60;;;;;;5031994;28;20256;-70
2023/04/06 02:42:26;;;;;;;14.00;11.77;;;-1.40;89.20;;;;;;5031710;28;20213;-69
2023/04/06 02:44:53;;;;;;;15.48;11.30;;;-1.20;89.40;;;;;;5031674;28;20679;-68
2023/04/06 02:47:20;;;;;;;12.80;11.50;;;-1.20;88.90;;;;;;5031674;28;20201;-69
2023/04/06 02:49:48;;;;;;;14.07;12.07;;;-1.20;88.00;;;;;;5031610;28;20317;-69
2023/04/06 02:52:15;;;;;;;14.13;11.63;;;-1.30;88.20;;;;;;5031775;28;20292;-71
2023/04/06 02:54:42;;;;;;;11.98;10.82;;;-1.30;88.60;;;;;;5031559;28;20209;-68
2023/04/06 02:57:09;;;;;;;13.07;11.63;;;-1.20;89.00;;;;;;5031679;28;20588;-70
2023/04/06 02:59:36;;;;;;;16.65;13.13;;;-1.20;88.80;;;;;;5031632;28;20578;-69
2023/04/06 03:02:02;;;;;;;16.15;13.07;;;-1.40;87.80;;;;;;5030809;28;20680;-69
2023/04/06 03:04:29;;;;;;;13.85;11.40;;;-1.50;89.10;;;;;;5031445;28;20659;-70
2023/04/06 03:06:57;;;;;;;21.08;12.95;;;-1.50;90.00;;;;;;5030545;28;20285;-68
2023/04/06 03:09:24;;;;;;;15.77;11.85;;;-1.40;90.10;;;;;;5031389;28;20226;-68
2023/04/06 03:11:51;;;;;;;14.45;12.35;;;-1.40;89.30;;;;;;5030581;28;20332;-69
2023/04/06 03:14:21;;;;;;;15.30;11.38;;;-1.50;89.10;;;;;;5031160;28;20292;-67
2023/04/06 03:16:48;;;;;;;13.65;11.93;;;-1.50;89.90;;;;;;5031494;28;20201;-68
2023/04/06 03:19:15;;;;;;;17.42;12.68;;;-1.50;90.10;;;;;;5030829;28;20313;-68
2023/04/06 03:21:42;;;;;;;13.85;11.95;;;-1.40;90.20;;;;;;5031193;28;20294;-69
2023/04/06 03:24:10;;;;;;;12.35;11.05;;;-1.40;88.90;;;;;;5030963;28;20289;-68
2023/04/06 03:26:37;;;;;;;15.05;12.50;;;-1.40;88.00;;;;;;5031136;28;20202;-69
2023/04/06 03:29:04;;;;;;;14.70;11.95;;;-1.50;89.30;;;;;;5030797;28;20316;-70
2023/04/06 03:31:31;;;;;;;16.65;12.30;;;-1.50;90.00;;;;;;5031228;28;20205;-68
2023/04/06 03:33:58;;;;;;;14.25;12.45;;;-1.40;90.10;;;;;;5030881;28;20212;-69
2023/04/06 03:36:26;;;;;;;14.80;12.02;;;-1.40;90.10;;;;;;5030651;28;20205;-68
2023/04/06 03:38:53;;;;;;;13.95;12.55;;;-1.60;90.00;;;;;;5030602;28;20316;-69
2023/04/06 03:41:22;;;;;;;14.95;12.55;;;-1.70;90.40;;;;;;5030631;28;20236;-68
2023/04/06 03:43:49;;;;;;;18.38;12.13;;;-1.70;90.50;;;;;;5030684;28;20217;-70
2023/04/06 03:46:16;;;;;;;13.82;11.90;;;-1.70;90.50;;;;;;5030897;28;20210;-68
2023/04/06 03:48:43;;;;;;;14.05;12.25;;;-1.50;90.70;;;;;;5011164;28;20289;-69
2023/04/06 03:51:10;;;;;;;14.20;11.60;;;-1.40;90.50;;;;;;5012015;28;20321;-68
2023/04/06 03:53:37;;;;;;;14.55;12.35;;;-1.50;90.10;;;;;;5011098;28;20207;-70
2023/04/06 03:56:05;;;;;;;15.77;10.77;;;-1.50;89.50;;;;;;5011121;28;20711;-69
2023/04/06 03:58:33;;;;;;;16.25;12.73;;;-1.40;88.60;;;;;;5011174;28;20644;-66
2023/04/06 04:01:00;;;;;;;16.95;12.45;;;-1.50;88.70;;;;;;5011255;28;20288;-68
2023/04/06 04:03:27;;;;;;;13.77;12.27;;;-1.60;90.20;;;;;;5009899;28;20234;-68
2023/04/06 04:05:54;;;;;;;17.80;11.75;;;-1.30;90.70;;;;;;5010747;28;20208;-69
2023/04/06 04:08:21;;;;;;;15.32;12.02;;;-1.40;90.30;;;;;;5010668;28;20222;-70
2023/04/06 04:10:48;;;;;;;13.63;12.07;;;-1.40;90.00;;;;;;5010662;28;20256;-69
2023/04/06 04:13:15;;;;;;;15.65;12.23;;;-1.60;89.60;;;;;;5010637;28;20229;-68
2023/04/06 04:15:43;;;;;;;15.88;13.45;;;-1.70;90.20;;;;;;5010621;28;20289;-69
2023/04/06 04:18:10;;;;;;;16.60;13.40;;;-1.60;90.40;;;;;;5010027;28;20204;-68
2023/04/06 04:20:37;;;;;;;16.67;13.30;;;-1.50;90.60;;;;;;5010055;28;20909;-69
2023/04/06 04:23:04;;;;;;;17.48;12.93;;;-1.60;90.20;;;;;;5010464;28;20364;-69
2023/04/06 04:25:30;;;;;;;15.73;12.38;;;-1.60;90.30;;;;;;5010043;28;20780;-69
2023/04/06 04:27:57;;;;;;;13.80;12.15;;;-1.50;90.20;;;;;;5010252;28;20298;-70
2023/04/06 04:30:24;;;;;;;16.25;12.15;;;-1.60;90.20;;;;;;5010124;28;20317;-68
2023/04/06 04:32:52;;;;;;;17.13;12.23;;;-1.70;89.40;;;;;;5009846;28;20293;-68
2023/04/06 04:35:19;;;;;;;15.65;12.15;;;-1.60;89.40;;;;;;5010704;28;20213;-68
2023/04/06 04:37:46;;;;;;;15.50;13.27;;;-1.70;89.30;;;;;;5009935;28;20281;-68
2023/04/06 04:40:13;;;;;;;15.15;13.18;;;-1.80;90.40;;;;;;5009934;28;20935;-69
2023/04/06 04:42:40;;;;;;;21.20;14.18;;;-1.60;90.50;;;;;;5009776;28;20229;-69
2023/04/06 04:45:08;;;;;;;17.02;13.63;;;-1.60;90.40;;;;;;5010206;28;20290;-70
2023/04/06 04:47:35;;;;;;;20.08;14.43;;;-1.70;90.00;;;;;;5009452;28;20360;-69
2023/04/06 04:50:03;;;;;;;15.30;13.45;;;-1.90;90.10;;;;;;5009724;28;20321;-69
2023/04/06 04:52:30;;;;;;;15.68;13.95;;;-2.00;90.80;;;;;;5010046;28;20747;-69
2023/04/06 04:54:56;;;;;;;16.90;13.82;;;-1.90;90.80;;;;;;5010169;28;20206;-69
2023/04/06 04:57:23;;;;;;;15.88;14.18;;;-1.90;90.80;;;;;;5010576;28;20241;-70
2023/04/06 04:59:50;;;;;;;16.05;13.10;;;-1.70;90.70;;;;;;5009771;28;20305;-69
2023/04/06 05:02:17;;;;;;;20.65;15.55;;;-1.60;90.80;;;;;;5010091;28;20600;-69
2023/04/06 05:04:44;;;;;;;19.25;15.25;;;-1.80;90.50;;;;;;5010013;28;20217;-69
2023/04/06 05:07:12;;;;;;;18.98;13.52;;;-1.90;90.40;;;;;;5010071;28;20297;-69
2023/04/06 05:09:39;;;;;;;15.85;13.30;;;-1.80;90.50;;;;;;5009832;28;20288;-69
2023/04/06 05:12:07;;;;;;;18.65;13.70;;;-1.90;90.60;;;;;;5009562;28;20203;-70
2023/04/06 05:14:34;;;;;;;14.57;12.50;;;-1.90;90.90;;;;;;5009768;28;20233;-69
2023/04/06 05:17:01;;;;;;;16.02;13.80;;;-1.90;91.20;;;;;;5009453;28;20203;-69
2023/04/06 05:19:27;;;;;;;15.98;13.10;;;-1.70;91.70;;;;;;5009794;28;20304;-68
2023/04/06 05:21:54;;;;;;;18.42;12.55;;;-1.60;91.50;;;;;;5009807;28;20630;-69
2023/04/06 05:24:23;;;;;;;17.55;12.93;;;-1.40;91.40;;;;;;5009961;28;20209;-69
2023/04/06 05:26:50;;;;;;;15.32;12.55;;;-1.40;91.30;;;;;;5009889;28;20293;-69
2023/04/06 05:29:17;;;;;;;16.67;13.63;;;-1.40;90.90;;;;;;5011435;28;20624;-69
2023/04/06 05:31:44;;;;;;;17.75;12.73;;;-1.40;90.70;;;;;;5013734;28;20222;-68
2023/04/06 05:34:12;;;;;;;15.52;12.98;;;-1.30;90.70;;;;;;5012907;28;20195;-70
2023/04/06 05:36:40;;;;;;;16.48;13.30;;;-1.30;90.10;;;;;;5013612;28;20316;-68
2023/04/06 05:39:07;;;;;;;16.42;12.85;;;-1.30;90.20;;;;;;5013421;28;20226;-69
2023/04/06 05:41:35;;;;;;;16.23;12.75;;;-1.00;90.30;;;;;;5013700;28;20663;-69
2023/04/06 05:44:02;;;;;;;16.50;13.20;;;-0.90;89.10;;;;;;5013507;28;20302;-69
2023/04/06 05:46:29;;;;;;;20.48;14.02;;;-0.80;89.70;;;;;;5013845;28;20238;-69
2023/04/06 05:48:56;;;;;;;15.88;13.65;;;-0.70;88.80;;;;;;5013668;28;20218;-68
2023/04/06 05:51:22;;;;;;;16.02;13.90;;;-0.70;88.30;;;;;;5013215;28;20222;-69
2023/04/06 05:53:49;;;;;;;24.27;14.40;;;-0.70;87.80;;;;;;5013353;28;20294;-68
2023/04/06 05:56:16;;;;;;;15.65;13.77;;;-0.40;87.50;;;;;;5013003;28;20199;-69
2023/04/06 05:58:44;;;;;;;16.35;13.85;;;-0.40;87.00;;;;;;5013053;28;20199;-68
2023/04/06 06:01:11;;;;;;;16.00;13.60;;;-0.40;87.20;;;;;;5012746;28;20694;-69
2023/04/06 06:03:38;;;;;;;20.45;13.55;;;-0.30;87.50;;;;;;5012911;28;20237;-69
2023/04/06 06:06:05;;;;;;;14.77;13.27;;;-0.20;85.90;;;;;;5013095;28;20752;-69
2023/04/06 06:08:32;;;;;;;19.33;13.68;;;0.10;85.70;;;;;;5012789;28;20324;-68
2023/04/06 06:10:59;;;;;;;15.82;12.75;;;0.10;84.40;;;;;;5012912;28;20305;-68
2023/04/06 06:13:26;;;;;;;14.27;12.77;;;0.30;84.40;;;;;;5012305;28;20211;-69
2023/04/06 06:15:55;;;;;;;14.55;12.90;;;0.50;83.20;;;;;;5013006;28;20248;-69
2023/04/06 06:18:22;;;;;;;14.45;12.90;;;0.70;82.80;;;;;;5012584;28;20209;-70
2023/04/06 06:20:48;;;;;;;15.23;13.07;;;0.80;81.30;;;;;;5012808;28;20736;-70
2023/04/06 06:23:15;;;;;;;15.88;12.55;;;0.80;80.70;;;;;;5012551;28;20202;-70
2023/04/06 06:25:42;;;;;;;16.75;13.30;;;0.90;80.10;;;;;;5012459;28;20241;-69
2023/04/06 06:28:09;;;;;;;20.02;13.77;;;1.00;80.20;;;;;;5012773;28;20303;-69
2023/04/06 06:30:36;;;;;;;15.40;13.60;;;1.10;80.20;;;;;;5012286;28;20422;-70
2023/04/06 06:33:04;;;;;;;15.50;13.90;;;1.20;80.30;;;;;;5012339;28;20231;-69
2023/04/06 06:35:31;;;;;;;17.20;13.50;;;1.30;80.10;;;;;;5012387;28;20249;-69
2023/04/06 06:37:58;;;;;;;16.77;13.07;;;1.30;77.80;;;;;;5012399;28;20620;-69
2023/04/06 06:40:25;;;;;;;14.48;12.98;;;1.30;79.30;;;;;;5011240;28;20792;-69
2023/04/06 06:42:52;;;;;;;17.67;13.27;;;1.50;80.10;;;;;;5012213;28;20259;-70
2023/04/06 06:45:20;;;;;;;18.85;14.98;;;1.50;78.10;;;;;;5012417;28;20309;-70
2023/04/06 06:47:46;;;;;;;15.40;13.80;;;1.70;78.20;;;;;;5012214;28;20581;-69
2023/04/06 06:50:15;;;;;;;16.63;13.50;;;1.90;76.90;;;;;;5012262;28;20222;-70
2023/04/06 06:52:42;;;;;;;16.88;13.80;;;2.00;76.20;;;;;;5011592;28;20790;-69
2023/04/06 06:55:10;;;;;;;32.97;16.25;;;2.20;77.60;;;;;;5012386;28;20250;-69
2023/04/06 06:57:42;;;;;;;15.98;13.65;;;2.30;74.70;;;;;;5011903;28;20295;-69
2023/04/06 07:00:10;;;;;;;14.32;12.65;;;2.40;74.40;;;;;;5012410;28;20228;-69
2023/04/06 07:02:37;;;;;;;18.05;13.32;;;2.60;72.90;;;;;;5012024;28;20200;-69
2023/04/06 07:05:05;;;;;;;15.27;12.73;;;2.70;71.50;;;;;;5011803;28;20303;-70
2023/04/06 07:07:35;;;;;;;17.02;13.25;;;2.80;70.40;;;;;;5011689;28;20809;-69
2023/04/06 07:10:02;;;;;;;14.17;12.73;;;2.80;70.00;;;;;;5011735;28;20235;-69
2023/04/06 07:12:29;;;;;;;18.67;14.05;;;2.90;69.60;;;;;;5011723;28;20526;-69
2023/04/06 07:14:56;;;;;;;15.33;12.63;;;3.00;69.70;;;;;;5011492;28;20747;-70
2023/04/06 07:17:23;;;;;;;14.97;13.37;;;3.10;69.20;;;;;;5011841;28;20885;-68
2023/04/06 07:19:50;;;;;;;16.63;13.43;;;3.30;69.10;;;;;;5011417;28;20488;-70
2023/04/06 07:22:17;;;;;;;16.67;13.63;;;3.40;66.70;;;;;;5011703;28;20444;-68
2023/04/06 07:24:45;;;;;;;16.83;13.47;;;3.70;67.20;;;;;;5011737;28;20866;-70
2023/04/06 07:27:12;;;;;;;17.50;13.10;;;3.80;65.50;;;;;;5011441;28;20541;-69
2023/04/06 07:29:39;;;;;;;14.13;12.30;;;3.90;65.50;;;;;;5011809;28;20848;-70
2023/04/06 07:32:06;;;;;;;14.37;12.50;;;4.00;65.50;;;;;;5011690;28;20606;-69
2023/04/06 07:34:32;;;;;;;20.60;13.40;;;4.10;63.30;;;;;;5011536;28;20477;-68
2023/04/06 07:37:00;;;;;;;15.07;13.50;;;4.20;62.60;;;;;;5011397;28;20553;-69
2023/04/06 07:39:27;;;;;;;14.03;12.53;;;4.40;61.90;;;;;;5011561;28;20479;-69
2023/04/06 07:41:56;;;;;;;15.87;14.17;;;4.50;61.20;;;;;;5011669;28;20456;-70
2023/04/06 07:44:23;;;;;;;14.40;12.90;;;4.70;60.00;;;;;;5011169;28;20538;-69
2023/04/06 07:46:49;;;;;;;14.00;12.60;;;4.80;59.90;;;;;;5011280;28;20472;-69
2023/04/06 07:49:16;;;;;;;15.87;14.00;;;4.90;59.90;;;;;;5028682;28;20497;-69
2023/04/06 07:51:43;;;;;;;13.80;12.30;;;5.10;61.40;;;;;;5030586;28;20554;-69
2023/04/06 07:54:10;;;;;;;15.90;13.57;;;5.10;59.10;;;;;;5030191;28;20444;-69
2023/04/06 07:56:37;;;;;;;16.87;14.33;;;5.40;59.10;;;;;;5030840;28;20576;-70
2023/04/06 07:59:05;;;;;;;16.60;13.27;;;5.50;58.50;;;;;;5030542;28;20846;-70
2023/04/06 08:01:32;;;;;;;14.07;12.30;;;5.70;58.90;;;;;;5030327;28;20448;-70
2023/04/06 08:04:01;;;;;;;15.10;13.53;;;5.90;58.40;;;;;;5030623;28;20455;-69
2023/04/06 08:06:28;;;;;;;17.50;13.07;;;6.10;56.50;;;;;;5030257;28;20991;-68
2023/04/06 08:08:55;;;;;;;13.87;12.37;;;6.20;56.30;;;;;;5030532;28;20558;-70
2023/04/06 08:11:22;;;;;;;15.10;13.50;;;6.30;55.10;;;;;;5029728;28;20545;-71
2023/04/06 08:13:50;;;;;;;15.00;13.60;;;6.50;56.60;;;;;;5027666;28;20949;-67
2023/04/06 08:16:18;;;;;;;13.27;12.07;;;6.60;54.00;;;;;;5030211;28;20458;-70
2023/04/06 08:18:45;;;;;;;14.63;13.17;;;6.80;55.30;;;;;;5030604;28;20485;-68
2023/04/06 08:21:12;;;;;;;15.13;13.37;;;6.90;55.60;;;;;;5030424;28;20532;-69
2023/04/06 08:23:39;;;;;;;14.90;13.33;;;7.10;54.50;;;;;;5030073;28;20461;-68
2023/04/06 08:26:05;;;;;;;18.73;13.70;;;7.30;54.30;;;;;;5029769;28;20977;-69
2023/04/06 08:28:34;;;;;;;15.07;13.37;;;7.50;52.30;;;;;;5030181;28;20483;-68
2023/04/06 08:31:04;;;;;;;14.47;13.03;;;7.70;52.00;;;;;;5029236;28;21014;-70
2023/04/06 08:33:35;;;;;;;13.87;12.57;;;7.90;52.40;;;;;;5029571;28;20445;-69
2023/04/06 08:36:08;;;;;;;14.10;12.60;;;8.10;51.10;;;;;;5030124;28;20448;-67
2023/04/06 08:38:35;;;;;;;13.97;12.47;;;8.30;50.00;;;;;;5029652;28;20476;-67
2023/04/06 08:41:08;;;;;;;18.77;13.10;;;8.40;50.20;;;;;;5029237;28;20460;-66
2023/04/06 08:43:42;;;;;;;13.07;11.80;;;8.70;49.30;;;;;;5029515;28;20445;-66
2023/04/06 08:46:09;;;;;;;13.27;11.93;;;8.70;47.10;;;;;;5029696;28;20819;-65
2023/04/06 08:48:39;;;;;;;13.80;11.80;;;8.80;47.10;;;;;;5030162;28;20968;-66
2023/04/06 08:51:06;;;;;;;13.50;12.10;;;9.10;48.00;;;;;;5029909;28;21035;-66
2023/04/06 08:53:33;;;;;;;11.60;10.50;;;9.20;44.00;;;;;;5030105;28;20450;-67
2023/04/06 08:56:01;;;;;;;15.37;11.40;;;9.20;45.90;;;;;;5029718;28;20443;-70
2023/04/06 08:58:31;;;;;;;12.60;11.40;;;9.40;44.60;;;;;;5029310;28;20997;-69
2023/04/06 09:00:59;;;;;;;12.97;10.60;;;9.60;45.40;;;;;;5028783;28;20550;-70
2023/04/06 09:03:28;;;;;;;11.77;10.50;;;9.90;44.50;;;;;;5022710;28;20459;-68
2023/04/06 09:05:56;;;;;;;14.40;12.90;;;10.10;40.70;;;;;;5036085;28;20539;-70
2023/04/06 09:08:23;;;;;;;13.03;11.00;;;10.10;40.60;;;;;;5036253;28;20538;-69
2023/04/06 09:10:51;;;;;;;10.90;9.80;;;10.30;41.50;;;;;;5036498;28;20574;-69
2023/04/06 09:13:18;;;;;;;12.23;10.53;;;10.50;40.20;;;;;;5036035;28;20445;-69
2023/04/06 09:15:45;;;;;;;11.93;10.77;;;10.70;39.60;;;;;;5036604;28;20483;-70
2023/04/06 09:18:13;;;;;;;12.37;9.70;;;10.70;41.40;;;;;;5036284;28;20449;-68
2023/04/06 09:20:40;;;;;;;10.60;9.50;;;11.10;37.70;;;;;;5035657;28;20480;-67
2023/04/06 09:23:18;;;;;;;12.70;10.67;;;11.40;39.10;;;;;;5035760;28;20827;-66
2023/04/06 09:25:45;;;;;;;14.10;12.30;;;11.80;38.00;;;;;;5035864;28;20547;-67
2023/04/06 09:28:12;;;;;;;13.90;11.70;;;12.30;35.30;;;;;;5036198;28;20541;-67
2023/04/06 09:30:49;;;;;;;15.60;11.27;;;12.30;35.80;;;;;;5035876;28;20555;-67
2023/04/06 09:33:23;;;;;;;12.27;11.07;;;12.50;37.40;;;;;;5034662;28;20465;-67
2023/04/06 09:35:51;;;;;;;15.37;11.50;;;12.80;38.10;;;;;;5028764;28;20464;-67
2023/04/06 09:38:19;;;;;;;12.80;11.60;;;13.20;35.90;;;;;;5033426;28;20882;-66
2023/04/06 09:40:51;;;;;;;13.73;12.30;;;13.50;36.90;;;;;;5034379;28;20474;-66
2023/04/06 09:43:25;;;;;;;12.50;11.30;;;13.60;33.00;;;;;;5032049;28;21456;-67
2023/04/06 09:45:53;;;;;;;11.87;10.60;;;14.00;32.40;;;;;;5032352;28;20454;-67
2023/04/06 09:48:22;;;;;;;12.53;11.17;;;14.30;32.10;;;;;;5027551;28;20538;-67
2023/04/06 09:50:50;;;;;;;12.37;11.17;;;14.60;32.10;;;;;;5042981;28;20463;-69
2023/04/06 09:53:21;;;;;;;13.07;11.87;;;14.70;29.70;;;;;;5033386;28;20441;-67
2023/04/06 09:55:53;;;;;;;12.03;10.73;;;14.50;30.90;;;;;;5034230;28;21019;-68
2023/04/06 09:58:26;;;;;;;12.53;11.27;;;14.50;32.20;;;;;;5033743;28;20527;-67
2023/04/06 10:00:58;;;;;;;12.37;11.27;;;14.90;29.70;;;;;;5034080;28;20468;-67
2023/04/06 10:03:33;;;;;;;15.70;12.60;;;15.40;31.40;;;;;;5013627;28;20901;-67
2023/04/06 10:06:04;;;;;;;13.10;11.80;;;15.50;31.40;;;;;;5031033;28;20527;-67
2023/04/06 10:08:35;;;;;;;12.90;11.63;;;15.70;30.00;;;;;;5034809;28;20444;-66
2023/04/06 10:11:03;;;;;;;11.23;10.13;;;15.80;30.70;;;;;;5023398;28;20540;-67
2023/04/06 10:13:30;;;;;;;12.07;10.97;;;16.00;30.50;;;;;;5024297;28;20449;-67
2023/04/06 10:15:58;;;;;;;11.80;10.60;;;15.90;28.10;;;;;;5020377;28;20549;-64
2023/04/06 10:18:25;;;;;;;12.53;11.33;;;16.20;29.40;;;;;;5019851;28;20459;-67
2023/04/06 10:20:56;;;;;;;13.50;12.20;;;16.50;27.30;;;;;;5020059;28;20509;-66
2023/04/06 10:23:30;;;;;;;13.27;12.03;;;16.60;27.80;;;;;;5018480;28;21027;-66
2023/04/06 10:26:00;;;;;;;12.97;11.70;;;16.30;27.30;;;;;;5016145;28;20539;-67
2023/04/06 10:28:32;;;;;;;12.47;11.47;;;15.60;26.40;;;;;;5017845;28;20445;-65
2023/04/06 10:31:00;;;;;;;12.37;11.10;;;15.40;29.40;;;;;;5021115;28;20544;-65
2023/04/06 10:33:28;;;;;;;12.13;10.83;;;15.10;27.90;;;;;;5022759;28;20559;-65
2023/04/06 10:35:56;;;;;;;12.27;11.07;;;15.20;28.70;;;;;;5022385;28;20430;-65
2023/04/06 10:38:33;;;;;;;11.93;10.30;;;15.20;28.60;;;;;;5017488;28;20529;-65
2023/04/06 10:41:06;;;;;;;11.50;10.40;;;15.40;27.80;;;;;;5018608;28;21070;-66
2023/04/06 10:43:36;;;;;;;10.70;9.60;;;16.20;27.80;;;;;;5020935;28;20529;-65
2023/04/06 10:46:03;;;;;;;10.50;9.60;;;16.90;28.50;;;;;;5020647;28;20438;-63
2023/04/06 10:48:39;;;;;;;11.07;10.00;;;17.50;26.10;;;;;;5018987;28;20537;-64
2023/04/06 10:51:10;;;;;;;12.50;11.20;;;18.00;28.00;;;;;;5017855;28;20437;-62
2023/04/06 10:53:37;;;;;;;12.30;11.10;;;18.10;27.50;;;;;;5018384;28;20568;-63
2023/04/06 10:56:10;;;;;;;12.13;10.93;;;18.60;26.50;;;;;;5019766;28;20488;-64
2023/04/06 10:58:36;;;;;;;12.03;11.00;;;19.10;26.00;;;;;;5012938;28;20541;-64
2023/04/06 11:01:04;;;;;;;11.93;10.70;;;19.00;25.90;;;;;;5026746;28;20628;-65
2023/04/06 11:03:32;;;;;;;11.97;10.87;;;18.90;27.00;;;;;;5028652;28;20445;-65
2023/04/06 11:05:58;;;;;;;12.47;11.33;;;19.10;25.90;;;;;;5036908;28;20503;-66
2023/04/06 11:08:31;;;;;;;11.30;10.30;;;19.30;26.60;;;;;;5029340;28;20449;-64
2023/04/06 11:11:10;;;;;;;12.83;11.53;;;19.50;25.20;;;;;;5029198;28;20544;-66
2023/04/06 11:13:42;;;;;;;11.00;9.90;;;19.80;26.90;;;;;;5028878;28;20485;-65
2023/04/06 11:16:14;;;;;;;11.67;10.47;;;19.60;23.10;;;;;;5029296;28;20553;-65
2023/04/06 11:18:51;;;;;;;10.30;9.20;;;19.40;25.10;;;;;;5029201;28;21033;-64
2023/04/06 11:21:18;;;;;;;11.10;9.80;;;19.60;23.00;;;;;;5029396;28;20528;-66
2023/04/06 11:23:45;;;;;;;12.60;11.40;;;19.70;25.10;;;;;;5028901;28;20528;-64
2023/04/06 11:26:14;;;;;;;10.33;9.33;;;19.70;24.20;;;;;;5028813;28;20449;-65
2023/04/06 11:28:42;;;;;;;11.80;10.70;;;19.40;22.80;;;;;;5029201;28;20449;-64
2023/04/06 11:31:10;;;;;;;12.27;11.07;;;19.10;22.10;;;;;;5029239;28;20455;-65
2023/04/06 11:33:38;;;;;;;11.43;10.33;;;19.00;23.70;;;;;;5028764;28;20484;-65
2023/04/06 11:36:05;;;;;;;11.27;9.87;;;19.20;24.10;;;;;;5029198;28;20464;-65
2023/04/06 11:38:32;;;;;;;10.03;9.13;;;19.00;24.80;;;;;;5028854;28;20437;-67
2023/04/06 11:40:59;;;;;;;12.13;11.03;;;19.40;24.40;;;;;;5028639;28;20567;-66
2023/04/06 11:43:31;;;;;;;10.20;9.10;;;19.70;24.90;;;;;;5028964;28;20456;-65
2023/04/06 11:46:03;;;;;;;9.37;8.47;;;19.30;23.40;;;;;;5029001;28;20455;-65
2023/04/06 11:48:30;;;;;;;9.73;8.60;;;19.20;25.60;;;;;;5027037;28;20464;-66
2023/04/06 11:50:58;;;;;;;8.17;7.43;;;19.90;23.00;;;;;;5025471;28;20527;-67
2023/04/06 11:53:25;;;;;;;8.90;8.00;;;20.60;23.20;;;;;;5028976;28;20489;-66
2023/04/06 11:55:52;;;;;;;9.20;8.30;;;20.80;23.60;;;;;;5030823;28;20456;-66
2023/04/06 11:58:19;;;;;;;9.00;8.07;;;20.90;23.30;;;;;;5027824;28;20993;-67
2023/04/06 12:00:47;;;;;;;8.67;7.93;;;20.90;20.90;;;;;;5028140;28;20491;-67
2023/04/06 12:03:14;;;;;;;8.97;8.10;;;21.40;21.20;;;;;;5019194;28;21057;-67
2023/04/06 12:05:41;;;;;;;8.23;7.43;;;22.00;20.50;;;;;;5016529;28;20442;-66
2023/04/06 12:08:08;;;;;;;7.80;7.00;;;22.70;21.10;;;;;;5019935;28;20453;-73
2023/04/06 12:10:35;;;;;;;10.00;8.53;;;22.70;20.50;;;;;;5019695;28;20467;-65
2023/04/06 12:13:02;;;;;;;9.47;8.67;;;22.70;22.30;;;;;;5017053;28;20711;-65
2023/04/06 12:15:29;;;;;;;9.30;8.40;;;23.30;18.90;;;;;;5018130;28;20568;-66
2023/04/06 12:17:57;;;;;;;8.80;8.10;;;22.90;19.30;;;;;;5018742;28;20932;-65
2023/04/06 12:20:24;;;;;;;9.33;8.63;;;21.80;19.00;;;;;;5017267;28;20491;-66
2023/04/06 12:22:51;;;;;;;9.80;8.90;;;21.00;19.70;;;;;;5017157;28;20465;-66
2023/04/06 12:25:18;;;;;;;7.57;6.87;;;20.30;21.00;;;;;;5018925;28;20982;-66
2023/04/06 12:27:45;;;;;;;8.50;7.70;;;20.50;23.20;;;;;;5017356;28;21239;-66
2023/04/06 12:30:12;;;;;;;9.70;8.83;;;21.00;21.10;;;;;;5017451;28;20459;-66
2023/04/06 12:32:39;;;;;;;9.53;8.73;;;21.10;21.50;;;;;;5019629;28;20577;-66